M I D A S
Marine Information and Data Acquisition System
Tripno 973 of the Zeeleeuw from 2005-10-18 06:32:33 to 2005-10-18 12:00:50
Back to CruiseResearch ActivitiesStationsMapUnderway DataData graphs

EquipmentUnitsComments
TimeDGPSUTC
LatitudeDGPSDM.mWGS84
LongitudeDGPSDM.mWGS84
SpeedMeteo Stationm/sRelative wind speed
DirectionMeteo StationdegRelative wind direction
TemperatureMeteo Stationdeg CelciusAir temperature
PressureMeteo StationPaAtmospheric pressure
HumidityMeteo Station%Relative humidity
Missing or incorrect values are displayed as -999
Metereological data collected by the RV Zeeleeuw from 2005-10-18 06:32:07 to 2005-10-18 12:07:32
Time Latitude Longitude Speed Direction Temperature Pressure Humidity
2005-10-18 06:33 51°13.618 2°56.04 -999 24 6 101820 86
2005-10-18 06:34 51°13.644 2°55.946 -999 343 6 101820 86
2005-10-18 06:35 51°13.688 2°55.835 -999 342 6 101820 85
2005-10-18 06:36 51°13.746 2°55.727 -999 296 6.1 101820 85
2005-10-18 06:37 51°13.835 2°55.645 -999 253 6.1 101830 85
2005-10-18 06:38 51°13.921 2°55.653 -999 235 6.2 101820 85
2005-10-18 06:39 51°13.95 2°55.66 -999 222 6.2 101820 85
2005-10-18 06:40 51°14.003 2°55.54 -999 111 6.3 101820 86
2005-10-18 06:41 51°14.132 2°55.413 -999 62 6.3 101820 85
2005-10-18 06:42 51°14.268 2°55.242 -999 115 6.3 101820 85
2005-10-18 06:43 51°14.388 2°55.01 -999 53 6.3 101820 84
2005-10-18 06:44 51°14.554 2°54.821 -999 67 6.3 101820 85
2005-10-18 06:45 51°14.743 2°54.684 -999 78 6.4 101810 85
2005-10-18 06:46 51°14.918 2°54.504 -999 82 6.6 101820 84
2005-10-18 06:47 51°15.105 2°54.383 -999 97 6.8 101820 86
2005-10-18 06:48 51°15.282 2°54.249 -999 90 6.9 101820 84
2005-10-18 06:49 51°15.46 2°54.075 -999 95 7 101820 84
2005-10-18 06:50 51°15.646 2°53.909 -999 83 7.2 101820 83
2005-10-18 06:51 51°15.839 2°53.747 -999 85 7.3 101830 83
2005-10-18 06:52 51°16.024 2°53.595 -999 97 7.4 101830 82
2005-10-18 06:53 51°16.214 2°53.431 -999 100 7.6 101830 82
2005-10-18 06:54 51°16.396 2°53.273 -999 90 7.6 101830 81
2005-10-18 06:55 51°16.585 2°53.125 -999 89 7.7 101820 82
2005-10-18 06:56 51°16.777 2°52.984 -999 98 7.8 101830 81
2005-10-18 06:57 51°16.951 2°52.83 -999 120 7.9 101830 81
2005-10-18 06:58 51°17.132 2°52.675 -999 107 7.9 101830 80
2005-10-18 06:59 51°17.31 2°52.521 -999 113 8 101830 79
2005-10-18 07:00 51°17.491 2°52.36 -999 103 8.1 101830 80
2005-10-18 07:01 51°17.671 2°52.196 -999 105 8.2 101840 79
2005-10-18 07:02 51°17.85 2°52.033 -999 103 8.3 101840 78
2005-10-18 07:03 51°18.03 2°51.868 -999 114 8.4 101840 78
2005-10-18 07:04 51°18.214 2°51.7 -999 108 8.4 101840 79
2005-10-18 07:05 51°18.396 2°51.532 -999 103 8.6 101850 79
2005-10-18 07:06 51°18.576 2°51.362 -999 110 8.6 101850 79
2005-10-18 07:07 51°18.759 2°51.196 -999 101 8.6 101850 77
2005-10-18 07:08 51°18.941 2°51.046 -999 93 8.7 101850 79
2005-10-18 07:09 51°19.126 2°50.895 -999 107 8.8 101830 79
2005-10-18 07:10 51°19.31 2°50.745 -999 103 8.8 101830 76
2005-10-18 07:11 51°19.495 2°50.597 -999 114 8.9 101840 77
2005-10-18 07:12 51°19.684 2°50.45 -999 111 9 101830 78
2005-10-18 07:13 51°19.874 2°50.302 -999 107 9 101830 78
2005-10-18 07:14 51°20.063 2°50.153 -999 103 9 101830 76
2005-10-18 07:15 51°20.252 2°50.002 -999 102 9.1 101820 78
2005-10-18 07:16 51°20.44 2°49.848 -999 98 9.1 101830 76
2005-10-18 07:17 51°20.628 2°49.688 -999 95 9.2 101830 78
2005-10-18 07:18 51°20.817 2°49.527 -999 104 9.2 101850 76
2005-10-18 07:19 51°21.005 2°49.365 -999 98 9.2 101840 75
2005-10-18 07:20 51°21.196 2°49.202 -999 96 9.2 101840 75
2005-10-18 07:21 51°21.386 2°49.039 -999 116 9.4 101840 77
2005-10-18 07:22 51°21.576 2°48.872 -999 100 9.4 101840 77
2005-10-18 07:23 51°21.767 2°48.705 -999 101 9.5 101840 75
2005-10-18 07:24 51°21.957 2°48.542 -999 119 9.5 101830 75
2005-10-18 07:25 51°22.142 2°48.361 -999 106 9.6 101830 73
2005-10-18 07:26 51°22.321 2°48.176 -999 123 9.6 101840 73
2005-10-18 07:27 51°22.487 2°47.976 -999 120 9.7 101820 75
2005-10-18 07:28 51°22.658 2°47.786 -999 121 9.8 101840 74
2005-10-18 07:29 51°22.825 2°47.585 -999 118 9.8 101830 75
2005-10-18 07:30 51°22.993 2°47.381 -999 108 9.8 101840 74
2005-10-18 07:31 51°23.165 2°47.185 -999 119 9.8 101840 73
2005-10-18 07:32 51°23.335 2°46.984 -999 121 9.9 101830 73
2005-10-18 07:33 51°23.508 2°46.784 -999 117 10 101840 73
2005-10-18 07:34 51°23.686 2°46.621 -999 110 10 101830 74
2005-10-18 07:35 51°23.878 2°46.565 -999 79 10 101810 73
2005-10-18 07:36 51°24.055 2°46.638 -999 72 10 101800 73
2005-10-18 07:37 51°24.211 2°46.782 -999 60 10.1 101780 73
2005-10-18 07:38 51°24.346 2°46.968 -999 56 10.1 101790 72
2005-10-18 07:39 51°24.47 2°47.171 -999 52 10.1 101790 73
2005-10-18 07:40 51°24.577 2°47.396 -999 46 10.2 101790 70
2005-10-18 07:41 51°24.678 2°47.624 -999 51 10.2 101790 72
2005-10-18 07:42 51°24.772 2°47.864 -999 44 10.1 101780 70
2005-10-18 07:43 51°24.856 2°48.103 -999 48 10.2 101780 71
2005-10-18 07:44 51°24.931 2°48.356 -999 50 10.2 101790 71
2005-10-18 07:45 51°25.007 2°48.607 -999 47 10.1 101800 69
2005-10-18 07:46 51°25.083 2°48.858 -999 42 10.1 101790 70
2005-10-18 07:47 51°25.158 2°49.105 -999 48 10.2 101790 70
2005-10-18 07:48 51°25.23 2°49.356 -999 40 10.3 101800 71
2005-10-18 07:49 51°25.297 2°49.61 -999 42 10.2 101770 71
2005-10-18 07:50 51°25.361 2°49.867 -999 41 10.2 101780 73
2005-10-18 07:51 51°25.418 2°50.13 -999 38 10.2 101790 72
2005-10-18 07:52 51°25.474 2°50.39 -999 40 10.2 101750 69
2005-10-18 07:53 51°25.53 2°50.652 -999 46 10.3 101750 69
2005-10-18 07:54 51°25.587 2°50.913 -999 49 10.2 101740 71
2005-10-18 07:55 51°25.643 2°51.173 -999 40 10.2 101750 67
2005-10-18 07:56 51°25.698 2°51.429 -999 39 10.4 101780 72
2005-10-18 07:57 51°25.755 2°51.693 -999 38 10.4 101790 74
2005-10-18 07:58 51°25.812 2°51.958 -999 36 10.4 101800 73
2005-10-18 07:59 51°25.867 2°52.219 -999 37 10.3 101800 70
2005-10-18 08:00 51°25.924 2°52.481 -999 38 10.3 101800 71
2005-10-18 08:01 51°25.982 2°52.743 -999 40 10.2 101780 69
2005-10-18 08:02 51°26.04 2°53.013 -999 36 10.2 101800 70
2005-10-18 08:03 51°26.101 2°53.274 -999 42 10.2 101760 71
2005-10-18 08:04 51°26.175 2°53.532 -999 47 10.2 101750 67
2005-10-18 08:05 51°26.25 2°53.792 -999 44 10.2 101750 69
2005-10-18 08:06 51°26.324 2°54.048 -999 38 10.3 101740 71
2005-10-18 08:07 51°26.397 2°54.306 -999 41 10.3 101730 71
2005-10-18 08:08 51°26.467 2°54.553 -999 39 10.3 101730 70
2005-10-18 08:09 51°26.537 2°54.811 -999 33 10.4 101740 73
2005-10-18 08:10 51°26.607 2°55.064 -999 39 10.3 101740 70
2005-10-18 08:11 51°26.675 2°55.317 -999 39 10.3 101740 73
2005-10-18 08:12 51°26.746 2°55.576 -999 38 10.2 101740 73
2005-10-18 08:13 51°26.817 2°55.838 -999 38 10.1 101740 71
2005-10-18 08:14 51°26.89 2°56.102 -999 43 10.1 101740 71
2005-10-18 08:15 51°26.962 2°56.363 -999 36 10.1 101740 73
2005-10-18 08:16 51°27.031 2°56.622 -999 40 10.1 101740 71
2005-10-18 08:17 51°27.097 2°56.875 -999 40 10.2 101760 75
2005-10-18 08:18 51°27.166 2°57.131 -999 41 10.2 101740 72
2005-10-18 08:19 51°27.228 2°57.399 -999 42 10.2 101730 72
2005-10-18 08:20 51°27.289 2°57.667 -999 37 10.1 101750 71
2005-10-18 08:21 51°27.349 2°57.948 -999 39 10.1 101750 71
2005-10-18 08:22 51°27.411 2°58.219 -999 41 10.1 101750 71
2005-10-18 08:23 51°27.474 2°58.493 -999 32 10.1 101740 70
2005-10-18 08:24 51°27.538 2°58.775 -999 42 10.1 101730 72
2005-10-18 08:25 51°27.603 2°59.052 -999 40 10.2 101750 74
2005-10-18 08:26 51°27.665 2°59.324 -999 42 10.2 101750 72
2005-10-18 08:27 51°27.729 2°59.607 -999 36 10.1 101740 72
2005-10-18 08:28 51°27.791 2°59.879 -999 39 10.1 101740 72
2005-10-18 08:29 51°27.855 3°0.16 -999 31 10.1 101730 72
2005-10-18 08:30 51°27.918 3°0.434 -999 35 10.1 101750 68
2005-10-18 08:31 51°27.983 3°0.708 -999 36 10.2 101740 73
2005-10-18 08:32 51°28.047 3°0.984 -999 41 10.1 101740 71
2005-10-18 08:33 51°28.111 3°1.261 -999 41 10.1 101730 73
2005-10-18 08:34 51°28.176 3°1.529 -999 40 10.1 101730 70
2005-10-18 08:35 51°28.241 3°1.809 -999 49 10.2 101730 72
2005-10-18 08:36 51°28.306 3°2.083 -999 45 10.3 101720 68
2005-10-18 08:37 51°28.372 3°2.359 -999 36 10.4 101730 72
2005-10-18 08:38 51°28.439 3°2.624 -999 43 10.4 101730 69
2005-10-18 08:39 51°28.534 3°2.879 -999 44 10.3 101730 67
2005-10-18 08:40 51°28.64 3°3.119 -999 57 10.4 101740 71
2005-10-18 08:41 51°28.806 3°3.238 -999 85 10.4 101720 70
2005-10-18 08:42 51°29 3°3.268 -999 83 10.4 101750 69
2005-10-18 08:43 51°29.19 3°3.291 -999 85 10.5 101750 74
2005-10-18 08:44 51°29.388 3°3.311 -999 85 10.4 101750 72
2005-10-18 08:45 51°29.577 3°3.228 -999 107 10.4 101770 72
2005-10-18 08:46 51°29.727 3°3.006 -999 149 10.4 101790 72
2005-10-18 08:47 51°29.802 3°2.669 -999 241 10.5 101800 72
2005-10-18 08:48 51°29.78 3°2.278 -999 254 10.6 101800 70
2005-10-18 08:49 51°29.736 3°1.888 -999 250 10.6 101790 69
2005-10-18 08:50 51°29.708 3°1.501 -999 233 10.6 101790 71
2005-10-18 08:51 51°29.681 3°1.113 -999 256 10.7 101790 72
2005-10-18 08:52 51°29.642 3°0.738 -999 254 10.7 101790 69
2005-10-18 08:53 51°29.594 3°0.343 -999 249 10.7 101780 69
2005-10-18 08:54 51°29.529 2°59.967 -999 263 10.6 101780 70
2005-10-18 08:55 51°29.473 2°59.577 -999 260 10.7 101770 72
2005-10-18 08:56 51°29.411 2°59.196 -999 243 10.7 101810 71
2005-10-18 08:57 51°29.339 2°58.823 -999 273 10.6 101760 71
2005-10-18 08:58 51°29.252 2°58.443 -999 270 10.6 101750 68
2005-10-18 08:59 51°29.166 2°58.065 -999 260 10.6 101760 69
2005-10-18 09:00 51°29.083 2°57.704 -999 265 10.6 101760 69
2005-10-18 09:01 51°28.997 2°57.328 -999 258 10.5 101750 68
2005-10-18 09:02 51°28.915 2°56.973 -999 249 10.5 101740 71
2005-10-18 09:03 51°28.828 2°56.607 -999 260 10.5 101740 68
2005-10-18 09:04 51°28.748 2°56.245 -999 245 10.6 101720 67
2005-10-18 09:05 51°28.674 2°55.881 -999 262 10.6 101730 68
2005-10-18 09:06 51°28.599 2°55.505 -999 254 10.6 101740 67
2005-10-18 09:07 51°28.525 2°55.139 -999 258 10.7 101730 68
2005-10-18 09:08 51°28.46 2°54.761 -999 262 10.8 101740 69
2005-10-18 09:09 51°28.407 2°54.39 -999 254 10.8 101730 69
2005-10-18 09:10 51°28.349 2°53.999 -999 251 10.7 101740 65
2005-10-18 09:11 51°28.288 2°53.621 -999 267 10.7 101740 67
2005-10-18 09:12 51°28.224 2°53.222 -999 260 10.9 101740 72
2005-10-18 09:13 51°28.168 2°52.832 -999 256 10.8 101740 66
2005-10-18 09:14 51°28.109 2°52.442 -999 254 10.7 101730 67
2005-10-18 09:15 51°28.05 2°52.044 -999 266 10.7 101730 66
2005-10-18 09:16 51°27.998 2°51.667 -999 249 10.6 101730 67
2005-10-18 09:17 51°27.935 2°51.276 -999 259 10.6 101730 68
2005-10-18 09:18 51°27.882 2°50.878 -999 257 10.6 101730 68
2005-10-18 09:19 51°27.84 2°50.491 -999 248 10.7 101720 69
2005-10-18 09:20 51°27.795 2°50.099 -999 248 10.7 101720 71
2005-10-18 09:21 51°27.749 2°49.711 -999 256 10.6 101740 64
2005-10-18 09:22 51°27.703 2°49.309 -999 247 10.6 101740 67
2005-10-18 09:23 51°27.66 2°48.921 -999 233 10.6 101750 66
2005-10-18 09:24 51°27.612 2°48.535 -999 245 10.7 101720 68
2005-10-18 09:25 51°27.561 2°48.16 -999 255 10.8 101720 68
2005-10-18 09:26 51°27.507 2°47.786 -999 258 10.8 101720 69
2005-10-18 09:27 51°27.454 2°47.399 -999 258 10.8 101730 67
2005-10-18 09:28 51°27.399 2°47.018 -999 261 10.9 101730 68
2005-10-18 09:29 51°27.346 2°46.64 -999 263 10.8 101730 65
2005-10-18 09:30 51°27.291 2°46.261 -999 259 10.8 101720 69
2005-10-18 09:31 51°27.24 2°45.87 -999 259 10.8 101740 67
2005-10-18 09:32 51°27.191 2°45.472 -999 252 10.7 101730 65
2005-10-18 09:33 51°27.138 2°45.092 -999 262 10.7 101740 67
2005-10-18 09:34 51°27.087 2°44.697 -999 253 10.7 101730 68
2005-10-18 09:35 51°27.126 2°44.36 -999 130 10.7 101740 68
2005-10-18 09:36 51°27.309 2°44.203 -999 116 10.7 101720 67
2005-10-18 09:37 51°27.502 2°44.081 -999 104 10.7 101730 69
2005-10-18 09:38 51°27.695 2°43.956 -999 116 10.7 101720 66
2005-10-18 09:39 51°27.889 2°43.836 -999 103 10.7 101730 70
2005-10-18 09:40 51°28.08 2°43.721 -999 108 10.7 101710 67
2005-10-18 09:41 51°28.271 2°43.601 -999 119 10.7 101730 69
2005-10-18 09:42 51°28.465 2°43.487 -999 112 10.7 101730 67
2005-10-18 09:43 51°28.658 2°43.387 -999 89 10.8 101720 68
2005-10-18 09:44 51°28.789 2°43.566 -999 50 10.8 101690 70
2005-10-18 09:45 51°28.846 2°43.846 -999 39 10.7 101680 64
2005-10-18 09:46 51°28.902 2°44.139 -999 40 10.7 101660 69
2005-10-18 09:47 51°28.957 2°44.429 -999 32 10.6 101660 70
2005-10-18 09:48 51°29.012 2°44.72 -999 43 10.6 101670 69
2005-10-18 09:49 51°29.074 2°45.005 -999 49 10.6 101660 66
2005-10-18 09:50 51°29.139 2°45.301 -999 36 10.6 101680 67
2005-10-18 09:51 51°29.197 2°45.592 -999 39 10.8 101680 70
2005-10-18 09:52 51°29.265 2°45.885 -999 43 10.8 101670 67
2005-10-18 09:53 51°29.33 2°46.166 -999 38 10.9 101670 71
2005-10-18 09:54 51°29.394 2°46.447 -999 49 10.8 101680 66
2005-10-18 09:55 51°29.458 2°46.732 -999 44 10.7 101670 70
2005-10-18 09:56 51°29.527 2°47.009 -999 53 10.6 101670 66
2005-10-18 09:57 51°29.685 2°47.162 -999 97 10.6 101660 67
2005-10-18 09:58 51°29.875 2°47.14 -999 95 10.6 101690 68
2005-10-18 09:59 51°30.073 2°47.09 -999 103 10.7 101700 68
2005-10-18 10:00 51°30.236 2°46.886 -999 152 10.7 101720 65
2005-10-18 10:01 51°30.216 2°46.558 -999 278 10.8 101710 67
2005-10-18 10:02 51°30.113 2°46.222 -999 275 10.9 101700 68
2005-10-18 10:03 51°30.012 2°45.878 -999 274 10.8 101720 66
2005-10-18 10:04 51°29.916 2°45.545 -999 273 10.9 101690 68
2005-10-18 10:05 51°29.809 2°45.201 -999 272 10.8 101710 69
2005-10-18 10:06 51°29.698 2°44.873 -999 284 10.9 101690 70
2005-10-18 10:07 51°29.575 2°44.546 -999 287 11 101700 69
2005-10-18 10:08 51°29.438 2°44.239 -999 281 11 101680 67
2005-10-18 10:09 51°29.298 2°43.935 -999 274 11 101690 65
2005-10-18 10:10 51°29.163 2°43.633 -999 281 11 101680 69
2005-10-18 10:11 51°29.023 2°43.331 -999 281 11 101670 65
2005-10-18 10:12 51°28.887 2°43.024 -999 277 11 101690 66
2005-10-18 10:13 51°28.742 2°42.704 -999 286 11 101690 68
2005-10-18 10:14 51°28.593 2°42.41 -999 296 11 101680 66
2005-10-18 10:15 51°28.415 2°42.187 -999 310 11 101670 65
2005-10-18 10:16 51°28.196 2°42.092 -999 321 11 101640 67
2005-10-18 10:17 51°27.968 2°42.11 -999 332 11 101650 66
2005-10-18 10:18 51°27.748 2°42.167 -999 335 10.9 101640 67
2005-10-18 10:19 51°27.533 2°42.234 -999 328 10.9 101640 65
2005-10-18 10:20 51°27.317 2°42.309 -999 331 10.8 101650 66
2005-10-18 10:21 51°27.092 2°42.382 -999 338 10.8 101650 63
2005-10-18 10:22 51°26.883 2°42.45 -999 331 10.8 101640 63
2005-10-18 10:23 51°26.66 2°42.516 -999 343 10.8 101640 63
2005-10-18 10:24 51°26.456 2°42.595 -999 336 10.8 101650 67
2005-10-18 10:25 51°26.241 2°42.68 -999 338 10.9 101640 67
2005-10-18 10:26 51°26.034 2°42.774 -999 339 10.8 101640 65
2005-10-18 10:27 51°25.823 2°42.874 -999 342 11 101660 69
2005-10-18 10:28 51°25.606 2°42.976 -999 334 10.9 101640 65
2005-10-18 10:29 51°25.395 2°43.08 -999 334 10.9 101640 66
2005-10-18 10:30 51°25.185 2°43.18 -999 337 10.9 101630 64
2005-10-18 10:31 51°24.969 2°43.279 -999 344 10.8 101670 64
2005-10-18 10:32 51°24.765 2°43.386 -999 332 10.8 101640 64
2005-10-18 10:33 51°24.553 2°43.495 -999 334 10.9 101640 67
2005-10-18 10:34 51°24.343 2°43.599 -999 348 10.9 101630 67
2005-10-18 10:35 51°24.133 2°43.704 -999 339 11 101640 68
2005-10-18 10:36 51°23.918 2°43.808 -999 342 11.1 101650 67
2005-10-18 10:37 51°23.712 2°43.905 -999 331 11 101640 67
2005-10-18 10:38 51°23.495 2°44.01 -999 335 11 101630 62
2005-10-18 10:39 51°23.285 2°44.106 -999 338 11 101640 59
2005-10-18 10:40 51°23.075 2°44.195 -999 344 11 101630 60
2005-10-18 10:41 51°22.866 2°44.287 -999 337 11.1 101630 62
2005-10-18 10:42 51°22.657 2°44.385 -999 339 11.1 101620 61
2005-10-18 10:43 51°22.451 2°44.484 -999 340 11.1 101630 63
2005-10-18 10:44 51°22.241 2°44.587 -999 338 11.1 101610 60
2005-10-18 10:45 51°22.027 2°44.696 -999 343 11 101630 61
2005-10-18 10:46 51°21.824 2°44.801 -999 340 11.1 101630 61
2005-10-18 10:47 51°21.617 2°44.928 -999 344 11.1 101630 62
2005-10-18 10:48 51°21.408 2°45.063 -999 341 11.1 101630 60
2005-10-18 10:49 51°21.206 2°45.195 -999 345 11 101620 59
2005-10-18 10:50 51°21.013 2°45.327 -999 341 11.1 101630 60
2005-10-18 10:51 51°20.813 2°45.459 -999 342 11.1 101630 58
2005-10-18 10:52 51°20.619 2°45.61 -999 346 11.1 101620 57
2005-10-18 10:53 51°20.437 2°45.796 -999 359 11.1 101640 61
2005-10-18 10:54 51°20.262 2°46.006 -999 350 11.2 101620 60
2005-10-18 10:55 51°20.085 2°46.214 -999 346 11.2 101640 60
2005-10-18 10:56 51°19.906 2°46.422 -999 347 11.2 101640 58
2005-10-18 10:57 51°19.726 2°46.636 -999 353 11.3 101630 61
2005-10-18 10:58 51°19.545 2°46.843 -999 349 11.2 101640 58
2005-10-18 10:59 51°19.37 2°47.036 -999 353 11.2 101620 58
2005-10-18 11:00 51°19.197 2°47.231 -999 356 11.2 101630 59
2005-10-18 11:01 51°19.018 2°47.434 -999 351 11.2 101630 62
2005-10-18 11:02 51°18.841 2°47.636 -999 345 11.1 101620 59
2005-10-18 11:03 51°18.663 2°47.839 -999 344 11.2 101630 60
2005-10-18 11:04 51°18.485 2°48.052 -999 346 11.2 101620 61
2005-10-18 11:05 51°18.306 2°48.254 -999 348 11.1 101620 61
2005-10-18 11:06 51°18.126 2°48.459 -999 343 11 101600 57
2005-10-18 11:07 51°17.946 2°48.653 -999 345 11.1 101610 59
2005-10-18 11:08 51°17.765 2°48.85 -999 344 11.1 101620 60
2005-10-18 11:09 51°17.58 2°49.045 -999 347 11 101610 57
2005-10-18 11:10 51°17.404 2°49.233 -999 343 11 101610 61
2005-10-18 11:11 51°17.216 2°49.416 -999 343 11 101610 59
2005-10-18 11:12 51°17.033 2°49.595 -999 344 11 101580 61
2005-10-18 11:13 51°16.861 2°49.739 -999 328 11 101580 62
2005-10-18 11:14 51°16.754 2°49.8 -999 227 11 101590 59
2005-10-18 11:15 51°16.69 2°49.829 -999 306 11 101590 60
2005-10-18 11:16 51°16.654 2°49.834 -999 272 11.1 101600 61
2005-10-18 11:17 51°16.655 2°49.826 -999 240 11.1 101610 59
2005-10-18 11:18 51°16.659 2°49.827 -999 241 11.1 101610 62
2005-10-18 11:19 51°16.656 2°49.825 -999 252 11.1 101610 61
2005-10-18 11:20 51°16.662 2°49.838 -999 261 11.2 101600 62
2005-10-18 11:21 51°16.651 2°49.823 -999 245 11.2 101590 58
2005-10-18 11:22 51°16.656 2°49.828 -999 244 11.2 101600 64
2005-10-18 11:23 51°16.66 2°49.83 -999 261 11.2 101590 59
2005-10-18 11:24 51°16.661 2°49.836 -999 261 11.2 101590 60
2005-10-18 11:25 51°16.658 2°49.829 -999 244 11.2 101590 58
2005-10-18 11:26 51°16.659 2°49.824 -999 259 11.2 101590 57
2005-10-18 11:27 51°16.687 2°49.865 -999 250 11.2 101590 57
2005-10-18 11:28 51°16.672 2°49.872 -999 307 11.2 101580 60
2005-10-18 11:29 51°16.564 2°49.928 -999 326 11.2 101560 57
2005-10-18 11:30 51°16.41 2°50.071 -999 346 11.3 101540 57
2005-10-18 11:31 51°16.266 2°50.33 -999 348 11.3 101540 57
2005-10-18 11:32 51°16.127 2°50.626 -999 353 11.3 101550 59
2005-10-18 11:33 51°15.991 2°50.9 -999 350 11.4 101550 59
2005-10-18 11:34 51°15.87 2°51.217 -999 354 11.4 101560 58
2005-10-18 11:35 51°15.752 2°51.518 -999 354 11.4 101550 58
2005-10-18 11:36 51°15.63 2°51.817 -999 355 11.4 101550 56
2005-10-18 11:37 51°15.499 2°52.119 -999 358 11.4 101560 60
2005-10-18 11:38 51°15.374 2°52.404 -999 351 11.5 101550 61
2005-10-18 11:39 51°15.243 2°52.693 -999 350 11.5 101550 59
2005-10-18 11:40 51°15.112 2°52.98 -999 348 11.5 101540 57
2005-10-18 11:41 51°14.985 2°53.261 -999 345 11.4 101550 58
2005-10-18 11:42 51°14.883 2°53.496 -999 352 11.4 101560 59
2005-10-18 11:43 51°14.803 2°53.694 -999 348 11.4 101570 58
2005-10-18 11:44 51°14.748 2°53.847 -999 349 11.3 101570 57
2005-10-18 11:45 51°14.698 2°53.977 -999 341 11.4 101570 59
2005-10-18 11:46 51°14.663 2°54.119 -999 345 11.4 101560 56
2005-10-18 11:47 51°14.626 2°54.251 -999 329 11.3 101560 57
2005-10-18 11:48 51°14.56 2°54.353 -999 328 11.3 101540 56
2005-10-18 11:49 51°14.489 2°54.443 -999 303 11.3 101540 57
2005-10-18 11:50 51°14.409 2°54.427 -999 259 11.3 101550 57
2005-10-18 11:51 51°14.379 2°54.311 -999 225 11.4 101570 59
2005-10-18 11:52 51°14.458 2°54.253 -999 83 11.4 101570 57
2005-10-18 11:53 51°14.52 2°54.408 -999 360 11.5 101530 60
2005-10-18 11:54 51°14.457 2°54.672 -999 353 11.5 101540 58
2005-10-18 11:55 51°14.378 2°54.987 -999 345 11.5 101520 56
2005-10-18 11:56 51°14.267 2°55.244 -999 347 11.5 101530 55
2005-10-18 11:57 51°14.145 2°55.392 -999 336 11.5 101540 57
2005-10-18 11:58 51°14.045 2°55.464 -999 344 11.6 101540 56
2005-10-18 11:59 51°13.943 2°55.538 -999 335 11.6 101530 55
2005-10-18 12:00 51°13.842 2°55.618 -999 351 11.6 101540 56
2005-10-18 12:01 51°13.745 2°55.723 -999 350 11.6 101520 54
2005-10-18 12:02 51°13.675 2°55.865 -999 351 11.6 101520 55
2005-10-18 12:03 51°13.631 2°55.972 -999 5 11.6 101540 56
2005-10-18 12:04 51°13.612 2°56.055 -999 358 11.6 101530 56
2005-10-18 12:05 51°13.602 2°56.098 -999 355 11.6 101540 56
2005-10-18 12:06 51°13.601 2°56.1 -999 340 11.6 101540 56
2005-10-18 12:07 51°13.601 2°56.1 -999 354 11.6 101540 57